Kakabeka Falls, Canada
Current Conditions -  °F | °C
As of 3:00 AM on Tuesday 21 Oct 2014 (Local Time) from CYQT Reporting Station
Broken Clouds Broken Clouds  
Wind Chill: 32°   Ceiling: 2700
Heat Index: 36°   Visibility: 15mi
Dew Point: 32°   Wind: 5mph
Humidity: 87%   Direction: 20°NNE
Pressure: 30.21"   Gusts: NA
Location:  48.4°N, 89.61°W
Report Text: CYQT 210700Z 02004KT 15SM BKN027 02/M00 A3021 RMK SC6 SLP238
Loading
Personal Weather Stations






























Interactive Weather Map
Tropical Storm Tracking
New forecast layout! Learn more

10-Day Weather Forecast

Advertisements
Track Severe Weather on mobile